createdAt,value
2017-02-05T00:00:03.381Z,2
2017-02-05T00:05:02.713Z,3
2017-02-05T00:10:03.315Z,4
2017-02-05T00:15:03.121Z,4
2017-02-05T00:20:02.589Z,2
2017-02-05T00:25:02.921Z,3
2017-02-05T00:30:03.547Z,3
2017-02-05T00:35:03.363Z,3
2017-02-05T00:40:02.875Z,1
2017-02-05T00:45:03.212Z,3
2017-02-05T00:50:02.846Z,4
2017-02-05T00:55:03.382Z,2
2017-02-05T01:00:03.206Z,3
2017-02-05T01:05:02.820Z,4
2017-02-05T01:10:03.207Z,3
2017-02-05T01:15:02.539Z,6
2017-02-05T01:20:03.113Z,8
2017-02-05T01:25:03.046Z,5
2017-02-05T01:30:02.609Z,6
2017-02-05T01:35:03.328Z,5
2017-02-05T01:40:03.227Z,6
2017-02-05T01:45:02.638Z,7
2017-02-05T01:50:02.803Z,7
2017-02-05T01:55:02.637Z,7
2017-02-05T02:00:03.213Z,7
2017-02-05T02:05:02.550Z,8
2017-02-05T02:10:03.303Z,4
2017-02-05T02:15:02.915Z,4
2017-02-05T02:20:02.746Z,3
2017-02-05T02:25:02.604Z,4
2017-02-05T02:30:03.317Z,3
2017-02-05T02:35:05.914Z,4
2017-02-05T02:40:03.478Z,3
2017-02-05T02:45:02.949Z,3
2017-02-05T02:50:02.750Z,3
2017-02-05T02:55:02.685Z,3
2017-02-05T03:00:03.226Z,5
2017-02-05T03:05:02.843Z,2
2017-02-05T03:10:03.252Z,4
2017-02-05T03:15:02.737Z,3
2017-02-05T03:20:03.222Z,5
2017-02-05T03:25:03.008Z,4
2017-02-05T03:30:02.609Z,0
2017-02-05T03:35:03.143Z,2
2017-02-05T03:40:02.573Z,3
2017-02-05T03:45:03.033Z,6
2017-02-05T03:50:02.723Z,3
2017-02-05T03:55:03.319Z,5
2017-02-05T04:00:02.895Z,3
2017-02-05T04:05:03.469Z,4
2017-02-05T04:10:03.017Z,3
2017-02-05T04:15:02.556Z,0
2017-02-05T04:20:03.028Z,1
2017-02-05T04:25:02.777Z,3
2017-02-05T04:30:02.624Z,2
2017-02-05T04:35:03.097Z,0
2017-02-05T04:40:02.709Z,2
2017-02-05T04:45:03.077Z,3
2017-02-05T04:50:03.461Z,2
2017-02-05T04:55:03.159Z,2
2017-02-05T05:00:02.946Z,2
2017-02-05T05:05:03.296Z,1
2017-02-05T05:10:02.925Z,2
2017-02-05T05:15:03.548Z,3
2017-02-05T05:20:03.254Z,2
2017-02-05T05:25:02.590Z,1
2017-02-05T05:30:03.183Z,1
2017-02-05T05:35:03.103Z,2
2017-02-05T05:40:02.753Z,3
2017-02-05T05:45:03.088Z,3
2017-02-05T05:50:03.280Z,3
2017-02-05T05:55:02.667Z,0
2017-02-05T06:00:02.760Z,3
2017-02-05T06:05:03.322Z,2
2017-02-05T06:10:03.143Z,2
2017-02-05T06:15:02.956Z,3
2017-02-05T06:20:03.436Z,3
2017-02-05T06:25:03.099Z,4
2017-02-05T06:30:03.460Z,2
2017-02-05T06:35:02.955Z,4
2017-02-05T06:40:02.612Z,2
2017-02-05T06:45:03.427Z,4
2017-02-05T06:50:03.223Z,2
2017-02-05T06:55:02.782Z,2
2017-02-05T07:00:03.257Z,2
2017-02-05T07:05:02.788Z,2
2017-02-05T07:10:03.274Z,0
2017-02-05T07:15:02.603Z,0
2017-02-05T07:20:03.071Z,2
2017-02-05T07:25:03.360Z,4
2017-02-05T07:30:02.873Z,2
2017-02-05T07:35:03.319Z,3
2017-02-05T07:40:02.701Z,2
2017-02-05T07:45:03.178Z,1
2017-02-05T07:50:02.760Z,3
2017-02-05T07:55:03.268Z,1
2017-02-05T08:00:02.594Z,0
2017-02-05T08:05:03.171Z,3
2017-02-05T08:10:02.775Z,3
2017-02-05T08:15:03.174Z,2
2017-02-05T08:20:03.037Z,2
2017-02-05T08:25:02.837Z,3
2017-02-05T08:30:03.314Z,2
2017-02-05T08:35:02.870Z,2
2017-02-05T08:40:03.396Z,1
2017-02-05T08:45:02.775Z,2
2017-02-05T08:50:03.408Z,0
2017-02-05T08:55:03.461Z,0
2017-02-05T09:00:03.258Z,0
2017-02-05T09:05:02.845Z,1
2017-02-05T09:10:03.313Z,0
2017-02-05T09:15:02.886Z,0
2017-02-05T09:20:03.478Z,0
2017-02-05T09:25:03.386Z,0
2017-02-05T09:30:02.828Z,0
2017-02-05T09:35:03.280Z,0
2017-02-05T09:40:02.794Z,0
2017-02-05T09:45:03.414Z,0
2017-02-05T09:50:03.040Z,0
2017-02-05T09:55:02.676Z,0
2017-02-05T10:00:03.273Z,0
2017-02-05T10:05:02.898Z,0
2017-02-05T10:10:03.428Z,0
2017-02-05T10:15:02.935Z,0
2017-02-05T10:20:02.637Z,0
2017-02-05T10:25:03.466Z,0
2017-02-05T10:30:02.862Z,0
2017-02-05T10:35:03.317Z,0
2017-02-05T10:40:02.573Z,0
2017-02-05T10:45:03.125Z,0
2017-02-05T10:50:02.906Z,0
2017-02-05T10:55:03.365Z,0
2017-02-05T11:00:02.983Z,0
2017-02-05T11:05:03.581Z,0
2017-02-05T11:10:03.426Z,2
2017-02-05T11:15:03.040Z,0
2017-02-05T11:20:02.859Z,0
2017-02-05T11:25:02.692Z,0
2017-02-05T11:30:02.976Z,0
2017-02-05T11:35:03.571Z,0
2017-02-05T11:40:03.482Z,2
2017-02-05T11:45:03.424Z,0
2017-02-05T11:50:02.573Z,0
2017-02-05T11:55:03.336Z,0
2017-02-05T12:00:03.212Z,2
2017-02-05T12:05:02.809Z,0
2017-02-05T12:10:02.843Z,1
2017-02-05T12:15:03.445Z,0
2017-02-05T12:20:03.130Z,0
2017-02-05T12:25:02.909Z,0
2017-02-05T12:30:02.917Z,2
2017-02-05T12:35:03.461Z,0
2017-02-05T12:40:03.075Z,1
2017-02-05T12:45:02.702Z,0
2017-02-05T12:50:03.439Z,0
2017-02-05T12:55:02.924Z,0
2017-02-05T13:00:03.499Z,2
2017-02-05T13:05:03.169Z,1
2017-02-05T13:10:03.570Z,0
2017-02-05T13:15:03.215Z,0
2017-02-05T13:20:02.679Z,2
2017-02-05T13:25:03.422Z,0
2017-02-05T13:30:02.981Z,0
2017-02-05T13:35:03.647Z,0
2017-02-05T13:40:03.543Z,0
2017-02-05T13:45:03.162Z,2
2017-02-05T13:50:02.721Z,0
2017-02-05T13:55:03.273Z,0
2017-02-05T14:00:03.173Z,0
2017-02-05T14:05:03.015Z,0
2017-02-05T14:10:02.913Z,0
2017-02-05T14:15:02.660Z,0
2017-02-05T14:20:03.274Z,0
2017-02-05T14:25:02.875Z,0
2017-02-05T14:30:03.517Z,0
2017-02-05T14:35:02.993Z,0
2017-02-05T14:40:02.664Z,0
2017-02-05T14:45:03.191Z,0
2017-02-05T14:50:03.089Z,0
2017-02-05T14:55:03.192Z,0
2017-02-05T15:00:03.458Z,0
2017-02-05T15:05:03.463Z,0
2017-02-05T15:10:03.354Z,0
2017-02-05T15:15:03.502Z,0
2017-02-05T15:20:02.613Z,0
2017-02-05T15:25:03.327Z,0
2017-02-05T15:30:02.635Z,0
2017-02-05T15:35:03.491Z,0
2017-02-05T15:40:03.521Z,0
2017-02-05T15:45:03.548Z,0
2017-02-05T15:50:03.235Z,0
2017-02-05T15:55:02.892Z,0
2017-02-05T16:00:02.834Z,0
2017-02-05T16:05:03.431Z,0
2017-02-05T16:10:03.303Z,0
2017-02-05T16:15:02.865Z,0
2017-02-05T16:20:02.845Z,0
2017-02-05T16:25:03.268Z,0
2017-02-05T16:30:02.948Z,0
2017-02-05T16:35:03.456Z,0
2017-02-05T16:40:03.136Z,0
2017-02-05T16:45:02.826Z,0
2017-02-05T16:50:03.338Z,0
2017-02-05T16:55:02.916Z,0
2017-02-05T17:00:03.471Z,0
2017-02-05T17:05:03.082Z,0
2017-02-05T17:10:03.487Z,0
2017-02-05T17:15:02.864Z,0
2017-02-05T17:20:03.292Z,0
2017-02-05T17:25:02.836Z,0
2017-02-05T17:30:03.512Z,0
2017-02-05T17:35:03.461Z,0
2017-02-05T17:40:03.036Z,0
2017-02-05T17:45:02.992Z,0
2017-02-05T17:50:03.563Z,0
2017-02-05T17:55:03.063Z,0
2017-02-05T18:00:03.492Z,0
2017-02-05T18:05:03.102Z,0
2017-02-05T18:10:02.766Z,0
2017-02-05T18:15:03.315Z,0
2017-02-05T18:20:03.069Z,0
2017-02-05T18:25:02.538Z,0
2017-02-05T18:30:03.091Z,0
2017-02-05T18:35:02.537Z,0
2017-02-05T18:40:03.239Z,0
2017-02-05T18:45:02.959Z,0
2017-02-05T18:50:02.570Z,0
2017-02-05T18:55:03.179Z,0
2017-02-05T19:00:02.925Z,0
2017-02-05T19:05:03.496Z,0
2017-02-05T19:10:03.028Z,0
2017-02-05T19:15:02.871Z,0
2017-02-05T19:20:02.620Z,0
2017-02-05T19:25:03.236Z,0
2017-02-05T19:30:03.178Z,0
2017-02-05T19:35:02.711Z,0
2017-02-05T19:40:03.354Z,0
2017-02-05T19:45:02.898Z,0
2017-02-05T19:50:03.318Z,0
2017-02-05T19:55:03.029Z,0
2017-02-05T20:00:02.977Z,0
2017-02-05T20:05:02.865Z,0
2017-02-05T20:10:03.507Z,1
2017-02-05T20:15:02.947Z,2
2017-02-05T20:20:03.729Z,0
2017-02-05T20:25:03.151Z,1
2017-02-05T20:30:02.907Z,0
2017-02-05T20:35:03.464Z,0
2017-02-05T20:40:03.169Z,0
2017-02-05T20:45:02.865Z,0
2017-02-05T20:50:03.230Z,0
2017-02-05T20:55:03.050Z,0
2017-02-05T21:00:02.640Z,0
2017-02-05T21:05:03.025Z,0
2017-02-05T21:10:03.445Z,0
2017-02-05T21:15:02.984Z,0
2017-02-05T21:20:02.985Z,0
2017-02-05T21:25:03.497Z,0
2017-02-05T21:30:03.108Z,0
2017-02-05T21:35:02.654Z,0
2017-02-05T21:40:03.402Z,1
2017-02-05T21:45:02.960Z,0
2017-02-05T21:50:03.445Z,0
2017-02-05T21:55:02.769Z,0
2017-02-05T22:00:03.209Z,0
2017-02-05T22:05:03.198Z,0
2017-02-05T22:10:02.710Z,0
2017-02-05T22:15:03.161Z,0
2017-02-05T22:20:02.891Z,0
2017-02-05T22:25:03.368Z,0
2017-02-05T22:30:03.205Z,0
2017-02-05T22:35:02.788Z,0
2017-02-05T22:40:02.733Z,0
2017-02-05T22:45:03.153Z,2
2017-02-05T22:50:02.645Z,0
2017-02-05T22:55:03.152Z,1
2017-02-05T23:00:03.534Z,2
2017-02-05T23:05:03.310Z,0
2017-02-05T23:10:03.339Z,2
2017-02-05T23:15:02.926Z,0
2017-02-05T23:20:03.559Z,0
2017-02-05T23:25:03.279Z,0
2017-02-05T23:30:02.697Z,0
2017-02-05T23:35:03.204Z,0
2017-02-05T23:40:02.708Z,0
2017-02-05T23:45:03.522Z,0
2017-02-05T23:50:03.327Z,0
2017-02-05T23:55:02.847Z,0
